sensor_id;sensor_type;location;lat;lon;timestamp;temperature;humidity
55135;DHT22;41031;44.750;11.308;2023-05-16T00:00:40;16.40;93.80
55135;DHT22;41031;44.750;11.308;2023-05-16T00:03:07;16.50;93.60
55135;DHT22;41031;44.750;11.308;2023-05-16T00:05:37;16.60;93.60
55135;DHT22;41031;44.750;11.308;2023-05-16T00:08:04;16.60;93.50
55135;DHT22;41031;44.750;11.308;2023-05-16T00:10:32;16.60;93.40
55135;DHT22;41031;44.750;11.308;2023-05-16T00:13:05;16.70;93.30
55135;DHT22;41031;44.750;11.308;2023-05-16T00:15:32;16.70;93.20
55135;DHT22;41031;44.750;11.308;2023-05-16T00:18:00;16.80;93.20
55135;DHT22;41031;44.750;11.308;2023-05-16T00:20:29;16.80;93.00
55135;DHT22;41031;44.750;11.308;2023-05-16T00:22:57;16.90;92.90
55135;DHT22;41031;44.750;11.308;2023-05-16T00:25:27;16.90;92.90
55135;DHT22;41031;44.750;11.308;2023-05-16T00:27:54;16.90;92.80
55135;DHT22;41031;44.750;11.308;2023-05-16T00:30:21;16.90;92.80
55135;DHT22;41031;44.750;11.308;2023-05-16T00:32:50;16.90;92.60
55135;DHT22;41031;44.750;11.308;2023-05-16T00:35:20;16.90;92.50
55135;DHT22;41031;44.750;11.308;2023-05-16T00:37:50;16.90;92.50
55135;DHT22;41031;44.750;11.308;2023-05-16T00:40:21;17.00;92.60
55135;DHT22;41031;44.750;11.308;2023-05-16T00:42:52;16.90;92.50
55135;DHT22;41031;44.750;11.308;2023-05-16T00:45:20;17.00;92.60
55135;DHT22;41031;44.750;11.308;2023-05-16T00:47:48;17.00;92.60
55135;DHT22;41031;44.750;11.308;2023-05-16T00:50:16;17.00;92.60
55135;DHT22;41031;44.750;11.308;2023-05-16T00:52:43;17.00;92.60
55135;DHT22;41031;44.750;11.308;2023-05-16T00:55:10;16.90;92.50
55135;DHT22;41031;44.750;11.308;2023-05-16T00:57:39;17.00;92.50
55135;DHT22;41031;44.750;11.308;2023-05-16T01:00:08;17.00;92.40
55135;DHT22;41031;44.750;11.308;2023-05-16T01:02:45;17.00;92.40
55135;DHT22;41031;44.750;11.308;2023-05-16T01:05:13;17.00;92.30
55135;DHT22;41031;44.750;11.308;2023-05-16T01:07:40;17.10;92.30
55135;DHT22;41031;44.750;11.308;2023-05-16T01:10:10;17.00;92.30
55135;DHT22;41031;44.750;11.308;2023-05-16T01:13:00;17.00;92.30
55135;DHT22;41031;44.750;11.308;2023-05-16T01:15:47;17.00;92.30
55135;DHT22;41031;44.750;11.308;2023-05-16T01:20:58;17.00;92.30
55135;DHT22;41031;44.750;11.308;2023-05-16T01:23:51;17.00;92.30
55135;DHT22;41031;44.750;11.308;2023-05-16T01:26:26;17.00;92.30
55135;DHT22;41031;44.750;11.308;2023-05-16T01:28:54;17.00;92.40
55135;DHT22;41031;44.750;11.308;2023-05-16T01:31:22;17.00;92.40
55135;DHT22;41031;44.750;11.308;2023-05-16T01:33:50;17.00;92.40
55135;DHT22;41031;44.750;11.308;2023-05-16T01:36:24;17.00;92.50
55135;DHT22;41031;44.750;11.308;2023-05-16T01:44:26;16.90;92.50
55135;DHT22;41031;44.750;11.308;2023-05-16T01:47:02;16.80;92.60
55135;DHT22;41031;44.750;11.308;2023-05-16T01:49:49;16.80;92.60
55135;DHT22;41031;44.750;11.308;2023-05-16T01:52:24;16.80;92.70
55135;DHT22;41031;44.750;11.308;2023-05-16T01:54:58;16.70;92.80
55135;DHT22;41031;44.750;11.308;2023-05-16T01:57:27;16.70;92.80
55135;DHT22;41031;44.750;11.308;2023-05-16T01:59:58;16.70;92.90
55135;DHT22;41031;44.750;11.308;2023-05-16T02:02:25;16.60;92.90
55135;DHT22;41031;44.750;11.308;2023-05-16T02:04:52;16.60;93.00
55135;DHT22;41031;44.750;11.308;2023-05-16T02:07:19;16.60;93.10
55135;DHT22;41031;44.750;11.308;2023-05-16T02:09:46;16.60;93.10
55135;DHT22;41031;44.750;11.308;2023-05-16T02:12:13;16.60;93.10
55135;DHT22;41031;44.750;11.308;2023-05-16T02:14:40;16.50;93.10
55135;DHT22;41031;44.750;11.308;2023-05-16T02:17:07;16.60;93.10
55135;DHT22;41031;44.750;11.308;2023-05-16T02:19:35;16.60;93.10
55135;DHT22;41031;44.750;11.308;2023-05-16T02:22:02;16.60;92.90
55135;DHT22;41031;44.750;11.308;2023-05-16T02:24:28;16.60;92.80
55135;DHT22;41031;44.750;11.308;2023-05-16T02:26:55;16.60;92.80
55135;DHT22;41031;44.750;11.308;2023-05-16T02:29:23;16.70;92.80
55135;DHT22;41031;44.750;11.308;2023-05-16T02:31:50;16.70;92.60
55135;DHT22;41031;44.750;11.308;2023-05-16T02:34:17;16.70;92.50
55135;DHT22;41031;44.750;11.308;2023-05-16T02:36:45;16.70;92.40
55135;DHT22;41031;44.750;11.308;2023-05-16T02:39:12;16.80;92.30
55135;DHT22;41031;44.750;11.308;2023-05-16T02:41:42;16.80;92.30
55135;DHT22;41031;44.750;11.308;2023-05-16T02:44:10;16.80;92.30
55135;DHT22;41031;44.750;11.308;2023-05-16T02:46:40;16.80;92.40
55135;DHT22;41031;44.750;11.308;2023-05-16T02:49:08;16.80;92.00
55135;DHT22;41031;44.750;11.308;2023-05-16T02:51:37;16.80;92.00
55135;DHT22;41031;44.750;11.308;2023-05-16T02:54:06;16.70;92.40
55135;DHT22;41031;44.750;11.308;2023-05-16T02:56:35;16.60;92.30
55135;DHT22;41031;44.750;11.308;2023-05-16T02:59:03;16.50;92.60
55135;DHT22;41031;44.750;11.308;2023-05-16T03:01:30;16.40;92.80
55135;DHT22;41031;44.750;11.308;2023-05-16T03:03:57;16.30;92.90
55135;DHT22;41031;44.750;11.308;2023-05-16T03:06:24;16.30;93.20
55135;DHT22;41031;44.750;11.308;2023-05-16T03:08:54;16.20;93.20
55135;DHT22;41031;44.750;11.308;2023-05-16T03:11:21;16.10;93.40
55135;DHT22;41031;44.750;11.308;2023-05-16T03:13:49;16.00;93.60
55135;DHT22;41031;44.750;11.308;2023-05-16T03:16:16;16.00;93.70
55135;DHT22;41031;44.750;11.308;2023-05-16T03:18:43;15.90;93.80
55135;DHT22;41031;44.750;11.308;2023-05-16T03:21:11;15.90;93.90
55135;DHT22;41031;44.750;11.308;2023-05-16T03:23:43;15.80;94.00
55135;DHT22;41031;44.750;11.308;2023-05-16T03:26:10;15.80;94.20
55135;DHT22;41031;44.750;11.308;2023-05-16T03:28:40;15.70;94.10
55135;DHT22;41031;44.750;11.308;2023-05-16T03:31:07;15.70;94.30
55135;DHT22;41031;44.750;11.308;2023-05-16T03:33:34;15.60;94.40
55135;DHT22;41031;44.750;11.308;2023-05-16T03:36:01;15.60;94.50
55135;DHT22;41031;44.750;11.308;2023-05-16T03:38:28;15.50;94.60
55135;DHT22;41031;44.750;11.308;2023-05-16T03:40:57;15.40;94.80
55135;DHT22;41031;44.750;11.308;2023-05-16T03:43:24;15.40;94.80
55135;DHT22;41031;44.750;11.308;2023-05-16T03:45:51;15.40;94.90
55135;DHT22;41031;44.750;11.308;2023-05-16T03:48:18;15.30;95.00
55135;DHT22;41031;44.750;11.308;2023-05-16T03:50:47;15.30;95.10
55135;DHT22;41031;44.750;11.308;2023-05-16T03:53:15;15.30;95.20
55135;DHT22;41031;44.750;11.308;2023-05-16T03:55:44;15.30;95.30
55135;DHT22;41031;44.750;11.308;2023-05-16T03:58:16;15.30;95.50
55135;DHT22;41031;44.750;11.308;2023-05-16T04:00:43;15.30;95.60
55135;DHT22;41031;44.750;11.308;2023-05-16T04:03:12;15.30;95.60
55135;DHT22;41031;44.750;11.308;2023-05-16T04:05:39;15.30;95.60
55135;DHT22;41031;44.750;11.308;2023-05-16T04:08:08;15.20;95.70
55135;DHT22;41031;44.750;11.308;2023-05-16T04:10:35;15.20;95.70
55135;DHT22;41031;44.750;11.308;2023-05-16T04:13:02;15.20;95.80
55135;DHT22;41031;44.750;11.308;2023-05-16T04:15:31;15.20;95.90
55135;DHT22;41031;44.750;11.308;2023-05-16T04:17:58;15.20;96.00
55135;DHT22;41031;44.750;11.308;2023-05-16T04:20:25;15.20;96.10
55135;DHT22;41031;44.750;11.308;2023-05-16T04:22:55;15.20;96.20
55135;DHT22;41031;44.750;11.308;2023-05-16T04:25:22;15.20;96.20
55135;DHT22;41031;44.750;11.308;2023-05-16T04:27:48;15.20;96.30
55135;DHT22;41031;44.750;11.308;2023-05-16T04:30:16;15.20;96.30
55135;DHT22;41031;44.750;11.308;2023-05-16T04:32:43;15.20;96.40
55135;DHT22;41031;44.750;11.308;2023-05-16T04:35:10;15.20;96.50
55135;DHT22;41031;44.750;11.308;2023-05-16T04:37:37;15.20;96.50
55135;DHT22;41031;44.750;11.308;2023-05-16T04:40:04;15.20;96.70
55135;DHT22;41031;44.750;11.308;2023-05-16T04:42:33;15.10;96.90
55135;DHT22;41031;44.750;11.308;2023-05-16T04:45:00;15.10;97.10
55135;DHT22;41031;44.750;11.308;2023-05-16T04:47:29;15.00;97.10
55135;DHT22;41031;44.750;11.308;2023-05-16T04:50:04;15.00;97.20
55135;DHT22;41031;44.750;11.308;2023-05-16T04:52:34;15.00;97.30
55135;DHT22;41031;44.750;11.308;2023-05-16T04:55:01;15.00;97.40
55135;DHT22;41031;44.750;11.308;2023-05-16T04:57:30;14.90;97.50
55135;DHT22;41031;44.750;11.308;2023-05-16T04:59:57;15.00;97.50
55135;DHT22;41031;44.750;11.308;2023-05-16T05:02:24;15.00;97.50
55135;DHT22;41031;44.750;11.308;2023-05-16T05:04:51;15.00;97.60
55135;DHT22;41031;44.750;11.308;2023-05-16T05:07:22;15.00;97.50
55135;DHT22;41031;44.750;11.308;2023-05-16T05:09:49;15.00;97.60
55135;DHT22;41031;44.750;11.308;2023-05-16T05:12:17;15.00;97.60
55135;DHT22;41031;44.750;11.308;2023-05-16T05:14:44;15.00;97.70
55135;DHT22;41031;44.750;11.308;2023-05-16T05:17:11;15.00;97.70
55135;DHT22;41031;44.750;11.308;2023-05-16T05:19:40;15.00;97.70
55135;DHT22;41031;44.750;11.308;2023-05-16T05:22:07;15.00;97.70
55135;DHT22;41031;44.750;11.308;2023-05-16T05:24:34;15.10;97.80
55135;DHT22;41031;44.750;11.308;2023-05-16T05:27:02;15.00;97.60
55135;DHT22;41031;44.750;11.308;2023-05-16T05:29:29;15.00;97.60
55135;DHT22;41031;44.750;11.308;2023-05-16T05:31:56;15.00;97.60
55135;DHT22;41031;44.750;11.308;2023-05-16T05:34:23;15.00;97.70
55135;DHT22;41031;44.750;11.308;2023-05-16T05:36:53;15.00;97.70
55135;DHT22;41031;44.750;11.308;2023-05-16T05:39:20;14.90;97.70
55135;DHT22;41031;44.750;11.308;2023-05-16T05:41:47;15.00;97.80
55135;DHT22;41031;44.750;11.308;2023-05-16T05:44:14;14.90;97.80
55135;DHT22;41031;44.750;11.308;2023-05-16T05:46:43;14.90;97.80
55135;DHT22;41031;44.750;11.308;2023-05-16T05:49:11;14.90;97.90
55135;DHT22;41031;44.750;11.308;2023-05-16T05:51:38;14.90;97.90
55135;DHT22;41031;44.750;11.308;2023-05-16T05:54:07;14.80;98.30
55135;DHT22;41031;44.750;11.308;2023-05-16T05:56:34;14.80;98.10
55135;DHT22;41031;44.750;11.308;2023-05-16T05:59:06;14.70;98.20
55135;DHT22;41031;44.750;11.308;2023-05-16T06:01:33;14.70;98.40
55135;DHT22;41031;44.750;11.308;2023-05-16T06:04:00;14.70;98.50
55135;DHT22;41031;44.750;11.308;2023-05-16T06:06:28;14.70;98.60
55135;DHT22;41031;44.750;11.308;2023-05-16T06:08:55;14.70;98.70
55135;DHT22;41031;44.750;11.308;2023-05-16T06:11:22;14.60;98.60
55135;DHT22;41031;44.750;11.308;2023-05-16T06:13:49;14.60;98.60
55135;DHT22;41031;44.750;11.308;2023-05-16T06:16:16;14.60;98.70
55135;DHT22;41031;44.750;11.308;2023-05-16T06:18:45;14.60;98.80
55135;DHT22;41031;44.750;11.308;2023-05-16T06:21:12;14.60;99.00
55135;DHT22;41031;44.750;11.308;2023-05-16T06:23:39;14.60;98.90
55135;DHT22;41031;44.750;11.308;2023-05-16T06:26:06;14.60;98.90
55135;DHT22;41031;44.750;11.308;2023-05-16T06:28:33;14.60;99.00
55135;DHT22;41031;44.750;11.308;2023-05-16T06:31:01;14.50;98.90
55135;DHT22;41031;44.750;11.308;2023-05-16T06:33:28;14.60;99.00
55135;DHT22;41031;44.750;11.308;2023-05-16T06:35:55;14.60;99.00
55135;DHT22;41031;44.750;11.308;2023-05-16T06:38:22;14.60;99.10
55135;DHT22;41031;44.750;11.308;2023-05-16T06:40:49;14.60;99.20
55135;DHT22;41031;44.750;11.308;2023-05-16T06:43:16;14.50;99.20
55135;DHT22;41031;44.750;11.308;2023-05-16T06:45:44;14.60;99.10
55135;DHT22;41031;44.750;11.308;2023-05-16T06:48:14;14.60;99.20
55135;DHT22;41031;44.750;11.308;2023-05-16T06:50:42;14.60;99.10
55135;DHT22;41031;44.750;11.308;2023-05-16T06:53:09;14.60;99.20
55135;DHT22;41031;44.750;11.308;2023-05-16T06:55:37;14.60;99.20
55135;DHT22;41031;44.750;11.308;2023-05-16T06:58:05;14.60;99.50
55135;DHT22;41031;44.750;11.308;2023-05-16T07:00:32;14.60;99.10
55135;DHT22;41031;44.750;11.308;2023-05-16T07:03:01;14.60;99.10
55135;DHT22;41031;44.750;11.308;2023-05-16T07:05:32;14.60;99.10
55135;DHT22;41031;44.750;11.308;2023-05-16T07:08:01;14.50;99.20
55135;DHT22;41031;44.750;11.308;2023-05-16T07:10:33;14.60;99.40
55135;DHT22;41031;44.750;11.308;2023-05-16T07:13:00;14.50;99.40
55135;DHT22;41031;44.750;11.308;2023-05-16T07:15:30;14.60;99.50
55135;DHT22;41031;44.750;11.308;2023-05-16T07:17:57;14.60;99.50
55135;DHT22;41031;44.750;11.308;2023-05-16T07:20:24;14.60;99.60
55135;DHT22;41031;44.750;11.308;2023-05-16T07:22:52;14.50;99.60
55135;DHT22;41031;44.750;11.308;2023-05-16T07:25:19;14.60;99.70
55135;DHT22;41031;44.750;11.308;2023-05-16T07:27:48;14.60;99.70
55135;DHT22;41031;44.750;11.308;2023-05-16T07:30:15;14.70;99.80
55135;DHT22;41031;44.750;11.308;2023-05-16T07:32:44;14.70;99.80
55135;DHT22;41031;44.750;11.308;2023-05-16T07:35:13;14.70;99.60
55135;DHT22;41031;44.750;11.308;2023-05-16T07:37:40;14.70;99.50
55135;DHT22;41031;44.750;11.308;2023-05-16T07:40:09;14.70;99.60
55135;DHT22;41031;44.750;11.308;2023-05-16T07:42:37;14.70;99.70
55135;DHT22;41031;44.750;11.308;2023-05-16T07:45:05;14.70;99.80
55135;DHT22;41031;44.750;11.308;2023-05-16T07:47:33;14.70;99.90
55135;DHT22;41031;44.750;11.308;2023-05-16T07:50:01;14.70;99.90
55135;DHT22;41031;44.750;11.308;2023-05-16T07:52:28;14.80;99.90
55135;DHT22;41031;44.750;11.308;2023-05-16T07:54:57;14.80;99.90
55135;DHT22;41031;44.750;11.308;2023-05-16T07:57:24;14.80;99.90
55135;DHT22;41031;44.750;11.308;2023-05-16T07:59:51;14.90;99.90
55135;DHT22;41031;44.750;11.308;2023-05-16T08:02:19;14.90;99.90
55135;DHT22;41031;44.750;11.308;2023-05-16T08:04:46;15.00;99.90
55135;DHT22;41031;44.750;11.308;2023-05-16T08:07:14;15.00;99.90
55135;DHT22;41031;44.750;11.308;2023-05-16T08:09:44;15.10;99.90
55135;DHT22;41031;44.750;11.308;2023-05-16T08:12:11;15.10;99.90
55135;DHT22;41031;44.750;11.308;2023-05-16T08:14:38;15.20;99.90
55135;DHT22;41031;44.750;11.308;2023-05-16T08:17:08;15.20;99.90
55135;DHT22;41031;44.750;11.308;2023-05-16T08:19:38;15.30;99.90
55135;DHT22;41031;44.750;11.308;2023-05-16T08:22:08;15.40;99.90
55135;DHT22;41031;44.750;11.308;2023-05-16T08:24:39;15.50;99.90
55135;DHT22;41031;44.750;11.308;2023-05-16T08:27:06;15.60;99.50
55135;DHT22;41031;44.750;11.308;2023-05-16T08:29:37;15.70;99.40
55135;DHT22;41031;44.750;11.308;2023-05-16T08:32:07;15.70;99.40
55135;DHT22;41031;44.750;11.308;2023-05-16T08:34:35;15.80;99.30
55135;DHT22;41031;44.750;11.308;2023-05-16T08:37:06;15.90;99.20
55135;DHT22;41031;44.750;11.308;2023-05-16T08:39:33;16.00;99.10
55135;DHT22;41031;44.750;11.308;2023-05-16T08:42:00;16.10;98.80
55135;DHT22;41031;44.750;11.308;2023-05-16T08:44:29;16.20;98.60
55135;DHT22;41031;44.750;11.308;2023-05-16T08:46:56;16.30;98.30
55135;DHT22;41031;44.750;11.308;2023-05-16T08:49:27;16.30;97.90
55135;DHT22;41031;44.750;11.308;2023-05-16T08:51:56;16.40;97.70
55135;DHT22;41031;44.750;11.308;2023-05-16T08:54:26;16.40;97.60
55135;DHT22;41031;44.750;11.308;2023-05-16T08:56:56;16.50;97.40
55135;DHT22;41031;44.750;11.308;2023-05-16T08:59:24;16.50;97.20
55135;DHT22;41031;44.750;11.308;2023-05-16T09:01:51;16.60;97.40
55135;DHT22;41031;44.750;11.308;2023-05-16T09:04:18;16.60;97.50
55135;DHT22;41031;44.750;11.308;2023-05-16T09:06:47;16.70;97.20
55135;DHT22;41031;44.750;11.308;2023-05-16T09:09:14;16.70;97.10
55135;DHT22;41031;44.750;11.308;2023-05-16T09:11:41;16.90;97.40
55135;DHT22;41031;44.750;11.308;2023-05-16T09:14:08;17.00;96.60
55135;DHT22;41031;44.750;11.308;2023-05-16T09:16:37;17.00;96.50
55135;DHT22;41031;44.750;11.308;2023-05-16T09:19:05;17.00;96.10
55135;DHT22;41031;44.750;11.308;2023-05-16T09:21:33;16.90;95.90
55135;DHT22;41031;44.750;11.308;2023-05-16T09:24:05;16.70;96.00
55135;DHT22;41031;44.750;11.308;2023-05-16T09:26:33;16.70;96.20
55135;DHT22;41031;44.750;11.308;2023-05-16T09:29:01;16.60;96.20
55135;DHT22;41031;44.750;11.308;2023-05-16T09:31:28;16.50;96.20
55135;DHT22;41031;44.750;11.308;2023-05-16T09:34:10;16.40;96.50
55135;DHT22;41031;44.750;11.308;2023-05-16T09:36:38;16.40;96.70
55135;DHT22;41031;44.750;11.308;2023-05-16T09:39:09;16.40;97.10
55135;DHT22;41031;44.750;11.308;2023-05-16T09:41:37;16.40;97.40
55135;DHT22;41031;44.750;11.308;2023-05-16T09:44:06;16.50;96.80
55135;DHT22;41031;44.750;11.308;2023-05-16T09:46:35;16.50;96.80
55135;DHT22;41031;44.750;11.308;2023-05-16T09:49:03;16.50;96.90
55135;DHT22;41031;44.750;11.308;2023-05-16T09:51:32;16.50;96.80
55135;DHT22;41031;44.750;11.308;2023-05-16T09:54:00;16.60;97.00
55135;DHT22;41031;44.750;11.308;2023-05-16T09:56:27;16.60;97.00
55135;DHT22;41031;44.750;11.308;2023-05-16T09:58:55;16.70;96.80
55135;DHT22;41031;44.750;11.308;2023-05-16T10:01:22;16.70;96.90
55135;DHT22;41031;44.750;11.308;2023-05-16T10:03:52;16.80;96.80
55135;DHT22;41031;44.750;11.308;2023-05-16T10:06:20;16.80;96.50
55135;DHT22;41031;44.750;11.308;2023-05-16T10:08:48;16.80;96.00
55135;DHT22;41031;44.750;11.308;2023-05-16T10:11:18;16.80;95.70
55135;DHT22;41031;44.750;11.308;2023-05-16T10:13:46;16.70;95.90
55135;DHT22;41031;44.750;11.308;2023-05-16T10:16:20;16.60;96.00
55135;DHT22;41031;44.750;11.308;2023-05-16T10:18:50;16.50;96.30
55135;DHT22;41031;44.750;11.308;2023-05-16T10:21:22;16.40;96.30
55135;DHT22;41031;44.750;11.308;2023-05-16T10:23:53;16.30;96.60
55135;DHT22;41031;44.750;11.308;2023-05-16T10:26:23;16.20;97.00
55135;DHT22;41031;44.750;11.308;2023-05-16T10:28:50;16.20;97.20
55135;DHT22;41031;44.750;11.308;2023-05-16T10:31:17;16.10;97.30
55135;DHT22;41031;44.750;11.308;2023-05-16T10:33:46;16.10;97.30
55135;DHT22;41031;44.750;11.308;2023-05-16T10:36:13;16.10;97.60
55135;DHT22;41031;44.750;11.308;2023-05-16T10:38:45;16.10;97.80
55135;DHT22;41031;44.750;11.308;2023-05-16T10:41:13;16.10;97.80
55135;DHT22;41031;44.750;11.308;2023-05-16T10:43:44;16.20;98.10
55135;DHT22;41031;44.750;11.308;2023-05-16T10:46:22;16.20;98.20
55135;DHT22;41031;44.750;11.308;2023-05-16T10:48:50;16.30;98.20
55135;DHT22;41031;44.750;11.308;2023-05-16T10:51:36;16.40;98.10
55135;DHT22;41031;44.750;11.308;2023-05-16T10:54:08;16.40;97.90
55135;DHT22;41031;44.750;11.308;2023-05-16T10:56:37;16.40;97.80
55135;DHT22;41031;44.750;11.308;2023-05-16T10:59:24;16.40;97.80
55135;DHT22;41031;44.750;11.308;2023-05-16T11:01:54;16.40;97.90
55135;DHT22;41031;44.750;11.308;2023-05-16T11:04:22;16.40;97.90
55135;DHT22;41031;44.750;11.308;2023-05-16T11:06:51;16.40;98.00
55135;DHT22;41031;44.750;11.308;2023-05-16T11:09:25;16.40;97.90
55135;DHT22;41031;44.750;11.308;2023-05-16T11:11:55;16.40;97.60
55135;DHT22;41031;44.750;11.308;2023-05-16T11:14:34;16.50;97.90
55135;DHT22;41031;44.750;11.308;2023-05-16T11:17:21;16.60;97.90
55135;DHT22;41031;44.750;11.308;2023-05-16T11:19:55;16.70;97.60
55135;DHT22;41031;44.750;11.308;2023-05-16T11:22:31;16.80;97.30
55135;DHT22;41031;44.750;11.308;2023-05-16T11:25:03;16.80;97.00
55135;DHT22;41031;44.750;11.308;2023-05-16T11:32:33;16.80;96.00
55135;DHT22;41031;44.750;11.308;2023-05-16T11:35:03;16.80;95.80
55135;DHT22;41031;44.750;11.308;2023-05-16T11:37:34;16.70;95.70
55135;DHT22;41031;44.750;11.308;2023-05-16T11:40:08;16.70;95.80
55135;DHT22;41031;44.750;11.308;2023-05-16T11:42:46;16.80;95.60
55135;DHT22;41031;44.750;11.308;2023-05-16T11:45:15;16.80;95.20
55135;DHT22;41031;44.750;11.308;2023-05-16T11:47:44;16.80;94.90
55135;DHT22;41031;44.750;11.308;2023-05-16T11:50:15;16.90;94.90
55135;DHT22;41031;44.750;11.308;2023-05-16T11:52:44;16.90;94.70
55135;DHT22;41031;44.750;11.308;2023-05-16T11:55:12;16.90;94.70
55135;DHT22;41031;44.750;11.308;2023-05-16T11:57:55;16.90;94.50
55135;DHT22;41031;44.750;11.308;2023-05-16T12:00:32;17.00;94.60
55135;DHT22;41031;44.750;11.308;2023-05-16T12:03:01;17.00;94.50
55135;DHT22;41031;44.750;11.308;2023-05-16T12:05:31;17.00;94.60
55135;DHT22;41031;44.750;11.308;2023-05-16T12:08:03;17.10;94.50
55135;DHT22;41031;44.750;11.308;2023-05-16T12:10:33;17.20;94.40
55135;DHT22;41031;44.750;11.308;2023-05-16T12:13:01;17.30;94.00
55135;DHT22;41031;44.750;11.308;2023-05-16T12:15:29;17.30;93.20
55135;DHT22;41031;44.750;11.308;2023-05-16T12:17:57;17.40;92.50
55135;DHT22;41031;44.750;11.308;2023-05-16T12:20:25;17.30;92.40
55135;DHT22;41031;44.750;11.308;2023-05-16T12:22:56;17.40;92.60
55135;DHT22;41031;44.750;11.308;2023-05-16T12:25:35;17.40;92.40
55135;DHT22;41031;44.750;11.308;2023-05-16T12:28:08;17.50;92.40
55135;DHT22;41031;44.750;11.308;2023-05-16T12:30:42;17.50;92.50
55135;DHT22;41031;44.750;11.308;2023-05-16T12:33:11;17.60;92.00
55135;DHT22;41031;44.750;11.308;2023-05-16T12:35:41;17.70;91.00
55135;DHT22;41031;44.750;11.308;2023-05-16T12:38:13;17.70;91.50
55135;DHT22;41031;44.750;11.308;2023-05-16T12:40:41;17.80;91.70
55135;DHT22;41031;44.750;11.308;2023-05-16T12:43:13;17.80;91.50
55135;DHT22;41031;44.750;11.308;2023-05-16T12:45:54;17.80;90.80
55135;DHT22;41031;44.750;11.308;2023-05-16T12:48:23;17.80;91.00
55135;DHT22;41031;44.750;11.308;2023-05-16T12:50:56;17.80;90.70
55135;DHT22;41031;44.750;11.308;2023-05-16T12:53:23;17.80;90.20
55135;DHT22;41031;44.750;11.308;2023-05-16T12:55:50;17.80;89.50
55135;DHT22;41031;44.750;11.308;2023-05-16T12:58:17;17.80;89.70
55135;DHT22;41031;44.750;11.308;2023-05-16T13:00:44;17.80;90.20
55135;DHT22;41031;44.750;11.308;2023-05-16T13:03:11;17.90;90.30
55135;DHT22;41031;44.750;11.308;2023-05-16T13:05:38;17.90;90.20
55135;DHT22;41031;44.750;11.308;2023-05-16T13:08:08;18.00;90.20
55135;DHT22;41031;44.750;11.308;2023-05-16T13:10:35;18.00;89.80
55135;DHT22;41031;44.750;11.308;2023-05-16T13:13:02;18.00;89.00
55135;DHT22;41031;44.750;11.308;2023-05-16T13:15:30;18.10;89.40
55135;DHT22;41031;44.750;11.308;2023-05-16T13:17:57;18.10;89.50
55135;DHT22;41031;44.750;11.308;2023-05-16T13:20:24;18.10;89.60
55135;DHT22;41031;44.750;11.308;2023-05-16T13:22:54;18.20;89.60
55135;DHT22;41031;44.750;11.308;2023-05-16T13:25:21;18.20;89.80
55135;DHT22;41031;44.750;11.308;2023-05-16T13:27:48;18.20;89.90
55135;DHT22;41031;44.750;11.308;2023-05-16T13:30:16;18.20;90.00
55135;DHT22;41031;44.750;11.308;2023-05-16T13:32:43;18.20;89.30
55135;DHT22;41031;44.750;11.308;2023-05-16T13:35:10;18.30;89.70
55135;DHT22;41031;44.750;11.308;2023-05-16T13:37:39;18.30;90.00
55135;DHT22;41031;44.750;11.308;2023-05-16T13:40:07;18.30;90.00
55135;DHT22;41031;44.750;11.308;2023-05-16T13:42:38;18.30;89.90
55135;DHT22;41031;44.750;11.308;2023-05-16T13:45:06;18.30;88.90
55135;DHT22;41031;44.750;11.308;2023-05-16T13:47:33;18.40;88.90
55135;DHT22;41031;44.750;11.308;2023-05-16T13:50:00;18.40;88.90
55135;DHT22;41031;44.750;11.308;2023-05-16T13:52:35;18.50;88.70
55135;DHT22;41031;44.750;11.308;2023-05-16T13:55:04;18.60;88.40
55135;DHT22;41031;44.750;11.308;2023-05-16T13:57:31;18.70;88.00
55135;DHT22;41031;44.750;11.308;2023-05-16T13:59:59;18.70;86.50
55135;DHT22;41031;44.750;11.308;2023-05-16T14:02:41;18.80;86.70
55135;DHT22;41031;44.750;11.308;2023-05-16T14:05:08;18.80;85.10
55135;DHT22;41031;44.750;11.308;2023-05-16T14:07:35;18.80;84.10
55135;DHT22;41031;44.750;11.308;2023-05-16T14:10:02;18.80;83.00
55135;DHT22;41031;44.750;11.308;2023-05-16T14:12:31;18.80;84.00
55135;DHT22;41031;44.750;11.308;2023-05-16T14:14:58;18.70;83.10
55135;DHT22;41031;44.750;11.308;2023-05-16T14:17:25;18.60;82.70
55135;DHT22;41031;44.750;11.308;2023-05-16T14:19:52;18.60;82.30
55135;DHT22;41031;44.750;11.308;2023-05-16T14:22:19;18.50;83.40
55135;DHT22;41031;44.750;11.308;2023-05-16T14:24:48;18.50;84.90
55135;DHT22;41031;44.750;11.308;2023-05-16T14:27:18;18.40;86.10
55135;DHT22;41031;44.750;11.308;2023-05-16T14:29:47;18.30;86.60
55135;DHT22;41031;44.750;11.308;2023-05-16T14:32:15;18.20;87.80
55135;DHT22;41031;44.750;11.308;2023-05-16T14:34:45;18.00;88.20
55135;DHT22;41031;44.750;11.308;2023-05-16T14:37:12;18.00;88.00
55135;DHT22;41031;44.750;11.308;2023-05-16T14:39:39;17.90;88.60
55135;DHT22;41031;44.750;11.308;2023-05-16T14:42:06;17.90;88.20
55135;DHT22;41031;44.750;11.308;2023-05-16T14:44:34;17.80;88.90
55135;DHT22;41031;44.750;11.308;2023-05-16T14:47:01;17.80;89.60
55135;DHT22;41031;44.750;11.308;2023-05-16T14:49:30;17.90;89.50
55135;DHT22;41031;44.750;11.308;2023-05-16T14:52:00;17.80;88.90
55135;DHT22;41031;44.750;11.308;2023-05-16T14:54:27;17.90;89.00
55135;DHT22;41031;44.750;11.308;2023-05-16T14:56:54;17.80;88.80
55135;DHT22;41031;44.750;11.308;2023-05-16T14:59:21;17.90;89.20
55135;DHT22;41031;44.750;11.308;2023-05-16T15:01:48;17.90;89.80
55135;DHT22;41031;44.750;11.308;2023-05-16T15:04:15;17.80;88.90
55135;DHT22;41031;44.750;11.308;2023-05-16T15:06:42;17.90;89.50
55135;DHT22;41031;44.750;11.308;2023-05-16T15:09:12;17.80;89.10
55135;DHT22;41031;44.750;11.308;2023-05-16T15:11:39;17.80;89.10
55135;DHT22;41031;44.750;11.308;2023-05-16T15:14:06;17.80;89.10
55135;DHT22;41031;44.750;11.308;2023-05-16T15:16:33;17.80;88.90
55135;DHT22;41031;44.750;11.308;2023-05-16T15:19:00;17.80;88.50
55135;DHT22;41031;44.750;11.308;2023-05-16T15:21:27;17.80;88.20
55135;DHT22;41031;44.750;11.308;2023-05-16T15:23:54;17.70;88.10
55135;DHT22;41031;44.750;11.308;2023-05-16T15:26:25;17.70;88.60
55135;DHT22;41031;44.750;11.308;2023-05-16T15:28:52;17.70;88.80
55135;DHT22;41031;44.750;11.308;2023-05-16T15:31:21;17.70;89.20
55135;DHT22;41031;44.750;11.308;2023-05-16T15:33:48;17.60;89.60
55135;DHT22;41031;44.750;11.308;2023-05-16T15:36:15;17.60;90.00
55135;DHT22;41031;44.750;11.308;2023-05-16T15:38:44;17.50;89.90